Terminal Aerodrome Forecast
Issued by NWS Mt. Holly, NJ

Home | Current Version | Previous Version | Text Only | Print | Product List | Glossary On
Versions: 1 2 3 4 5 6 7 8 9 10 11 12 13
000
FTUS41 KPHI 230424 AAA
TAFILG
TAF AMD
KILG 230424Z 2304/2324 00000KT P6SM BKN009
     FM230900 VRB02KT 4SM BR BKN006
     FM231300 VRB03KT 6SM BR SCT006 BKN015
     FM231400 12004KT P6SM SCT006 BKN025
     FM231700 15009KT P6SM BKN040=

USA.gov is the U.S. government's official web portal to all federal, state and local government web resources and services.